createdAt,value
2022-11-24T00:04:16.967Z,20.23
2022-11-24T00:09:12.192Z,20.75
2022-11-24T00:14:07.841Z,20.42
2022-11-24T00:19:02.495Z,20.75
2022-11-24T00:23:56.041Z,19.70
2022-11-24T00:28:52.535Z,21.92
2022-11-24T00:33:49.128Z,22.20
2022-11-24T00:38:42.870Z,20.15
2022-11-24T00:43:36.247Z,21.85
2022-11-24T00:48:29.676Z,22.33
2022-11-24T00:53:24.286Z,24.40
2022-11-24T00:58:17.525Z,21.70
2022-11-24T01:03:10.790Z,21.38
2022-11-24T01:08:04.010Z,21.45
2022-11-24T01:12:59.080Z,21.20
2022-11-24T01:17:52.425Z,20.35
2022-11-24T01:22:45.590Z,19.23
2022-11-24T01:27:41.423Z,22.05
2022-11-24T01:32:37.445Z,20.30
2022-11-24T01:37:30.773Z,20.25
2022-11-24T01:42:24.101Z,22.20
2022-11-24T01:47:35.098Z,22.58
2022-11-24T01:52:35.839Z,22.88
2022-11-24T01:57:35.269Z,21.00
2022-11-24T02:02:30.966Z,20.52
2022-11-24T02:07:25.910Z,21.27
2022-11-24T02:12:20.461Z,19.75
2022-11-24T02:17:13.731Z,19.83
2022-11-24T02:22:13.496Z,18.30
2022-11-24T02:27:08.431Z,18.83
2022-11-24T02:32:05.443Z,21.10
2022-11-24T02:36:58.620Z,21.08
2022-11-24T02:41:55.077Z,19.77
2022-11-24T02:46:49.681Z,19.77
2022-11-24T02:51:42.948Z,18.83
2022-11-24T02:56:36.184Z,19.88
2022-11-24T03:01:29.451Z,20.40
2022-11-24T03:06:24.175Z,21.15
2022-11-24T03:11:17.543Z,21.92
2022-11-24T03:16:11.694Z,19.98
2022-11-24T03:21:08.109Z,19.50
2022-11-24T03:26:10.356Z,18.10
2022-11-24T03:31:03.871Z,19.33
2022-11-24T03:35:57.104Z,18.05
2022-11-24T03:40:50.458Z,18.63
2022-11-24T03:45:55.341Z,17.90
2022-11-24T03:50:56.341Z,18.98
2022-11-24T03:55:49.595Z,20.95
2022-11-24T04:00:43.041Z,20.95
2022-11-24T04:05:37.744Z,19.70
2022-11-24T04:10:31.165Z,20.88
2022-11-24T04:15:24.446Z,19.30
2022-11-24T04:20:18.688Z,20.00
2022-11-24T04:25:13.599Z,20.70
2022-11-24T04:30:08.704Z,18.60
2022-11-24T04:35:03.079Z,17.73
2022-11-24T04:39:56.554Z,19.35
2022-11-24T04:44:51.212Z,21.75
2022-11-24T04:49:44.448Z,21.45
2022-11-24T04:54:38.318Z,19.40
2022-11-24T04:59:31.700Z,17.20
2022-11-24T05:04:26.361Z,16.90
2022-11-24T05:09:19.638Z,17.65
2022-11-24T05:14:12.929Z,17.67
2022-11-24T05:19:06.248Z,15.13
2022-11-24T05:24:01.077Z,15.95
2022-11-24T05:28:54.502Z,14.75
2022-11-24T05:33:47.813Z,14.15
2022-11-24T05:38:44.168Z,12.73
2022-11-24T05:43:38.798Z,26.88
2022-11-24T05:48:32.103Z,15.55
2022-11-24T05:53:26.468Z,14.48
2022-11-24T05:58:20.063Z,11.38
2022-11-24T06:03:15.032Z,11.88
2022-11-24T06:08:08.302Z,11.98
2022-11-24T06:13:06.320Z,11.43
2022-11-24T06:17:59.694Z,10.68
2022-11-24T06:22:54.283Z,12.70
2022-11-24T06:27:51.883Z,13.18
2022-11-24T06:32:49.689Z,13.93
2022-11-24T06:37:43.214Z,12.98
2022-11-24T06:42:38.329Z,12.25
2022-11-24T06:47:31.488Z,11.10
2022-11-24T06:52:24.665Z,12.10
2022-11-24T06:57:18.074Z,12.05
2022-11-24T07:02:15.145Z,13.10
2022-11-24T07:07:08.369Z,13.02
2022-11-24T07:12:04.936Z,14.27
2022-11-24T07:16:58.191Z,13.80
2022-11-24T07:21:52.854Z,15.68
2022-11-24T07:26:46.378Z,14.75
2022-11-24T07:31:39.605Z,16.70
2022-11-24T07:36:32.919Z,14.90
2022-11-24T07:41:27.515Z,22.60
2022-11-24T07:46:21.757Z,20.60
2022-11-24T07:51:16.266Z,21.80
2022-11-24T07:56:10.914Z,17.83
2022-11-24T08:01:13.003Z,17.40
2022-11-24T08:11:19.717Z,15.10
2022-11-24T08:16:16.155Z,13.65
2022-11-24T08:21:14.683Z,12.95
2022-11-24T08:26:10.799Z,11.30
2022-11-24T08:31:05.717Z,11.48
2022-11-24T08:36:04.102Z,9.75
2022-11-24T08:41:01.515Z,13.30
2022-11-24T08:45:54.827Z,13.98
2022-11-24T08:50:48.082Z,11.45
2022-11-24T08:55:42.670Z,11.77
2022-11-24T09:00:35.806Z,14.48
2022-11-24T09:05:51.342Z,11.60
2022-11-24T09:10:46.896Z,13.45
2022-11-24T09:15:40.300Z,14.55
2022-11-24T09:20:33.503Z,13.00
2022-11-24T09:25:26.802Z,13.15
2022-11-24T09:30:23.268Z,11.70
2022-11-24T09:35:16.730Z,12.20
2022-11-24T09:40:13.772Z,17.60
2022-11-24T09:45:26.290Z,18.25
2022-11-24T09:50:34.490Z,14.52
2022-11-24T09:55:36.034Z,15.40
2022-11-24T10:00:30.342Z,14.75
2022-11-24T10:05:33.095Z,16.98
2022-11-24T10:10:36.115Z,16.55
2022-11-24T10:15:43.882Z,15.93
2022-11-24T10:20:52.330Z,16.92
2022-11-24T10:25:52.836Z,16.45
2022-11-24T10:35:46.043Z,18.52
2022-11-24T10:40:57.864Z,17.90
2022-11-24T10:45:51.871Z,16.50
2022-11-24T10:50:46.524Z,16.08
2022-11-24T10:55:59.155Z,16.98
2022-11-24T11:00:52.382Z,15.73
2022-11-24T11:05:50.355Z,16.50
2022-11-24T11:10:44.836Z,7.03
2022-11-24T11:15:38.680Z,4.65
2022-11-24T11:20:34.311Z,3.85
2022-11-24T11:25:33.304Z,3.03
2022-11-24T11:35:42.336Z,3.10
2022-11-24T11:40:37.908Z,3.40
2022-11-24T11:45:36.640Z,4.50
2022-11-24T11:51:14.991Z,4.45
2022-11-24T11:56:10.046Z,5.85
2022-11-24T12:01:13.339Z,4.32
2022-11-24T12:06:21.912Z,5.22
2022-11-24T12:11:22.719Z,7.93
2022-11-24T12:16:30.934Z,6.30
2022-11-24T12:21:30.911Z,7.07
2022-11-24T12:26:31.488Z,9.15
2022-11-24T12:31:35.430Z,7.25
2022-11-24T12:36:42.254Z,7.97
2022-11-24T12:41:53.273Z,7.28
2022-11-24T12:46:54.896Z,5.75
2022-11-24T12:51:56.055Z,7.25
2022-11-24T12:56:59.912Z,6.25
2022-11-24T13:02:00.662Z,7.97
2022-11-24T13:07:00.855Z,8.35
2022-11-24T13:12:09.038Z,8.40
2022-11-24T13:22:25.817Z,8.57
2022-11-24T13:27:44.401Z,9.10
2022-11-24T13:32:47.534Z,9.20
2022-11-24T13:37:51.733Z,9.43
2022-11-24T13:43:18.590Z,10.30
2022-11-24T13:48:56.821Z,12.35
2022-11-24T13:53:54.737Z,11.85
2022-11-24T13:58:50.950Z,11.35
2022-11-24T14:04:34.019Z,10.93
2022-11-24T14:09:35.379Z,17.10
2022-11-24T14:14:29.207Z,15.55
2022-11-24T14:19:22.360Z,10.27
2022-11-24T14:24:24.562Z,11.25
2022-11-24T14:29:23.140Z,10.73
2022-11-24T14:34:21.268Z,12.88
2022-11-24T14:39:18.528Z,12.35
2022-11-24T14:44:21.464Z,10.60
2022-11-24T14:49:21.557Z,17.88
2022-11-24T14:54:19.479Z,12.60
2022-11-24T14:59:23.617Z,14.30
2022-11-24T15:09:39.746Z,12.10
2022-11-24T15:14:45.513Z,11.57
2022-11-24T15:19:41.653Z,11.63
2022-11-24T15:24:35.769Z,13.05
2022-11-24T15:29:29.580Z,9.32
2022-11-24T15:34:24.624Z,8.57
2022-11-24T15:39:18.690Z,12.57
2022-11-24T15:44:12.832Z,13.88
2022-11-24T15:49:07.286Z,13.63
2022-11-24T15:54:02.848Z,13.32
2022-11-24T15:58:56.410Z,11.82
2022-11-24T16:03:50.168Z,10.02
2022-11-24T16:08:47.130Z,12.77
2022-11-24T16:13:48.406Z,10.90
2022-11-24T16:18:46.074Z,10.40
2022-11-24T16:23:39.904Z,12.00
2022-11-24T16:28:34.395Z,8.98
2022-11-24T16:33:30.170Z,10.18
2022-11-24T16:38:24.114Z,10.82
2022-11-24T16:43:17.860Z,9.65
2022-11-24T16:48:11.905Z,9.82
2022-11-24T16:53:09.647Z,10.05
2022-11-24T16:58:05.540Z,10.77
2022-11-24T17:03:03.628Z,10.75
2022-11-24T17:07:57.496Z,10.57
2022-11-24T17:12:53.398Z,13.88
2022-11-24T17:18:16.120Z,10.32
2022-11-24T17:23:00.656Z,10.30
2022-11-24T17:28:01.801Z,8.40
2022-11-24T17:32:58.584Z,8.55
2022-11-24T17:38:02.174Z,9.63
2022-11-24T17:42:58.596Z,9.10
2022-11-24T17:47:54.227Z,9.07
2022-11-24T17:52:51.209Z,8.50
2022-11-24T17:58:01.490Z,8.75
2022-11-24T18:02:58.041Z,7.45
2022-11-24T18:08:22.402Z,8.15
2022-11-24T18:13:34.285Z,7.45
2022-11-24T18:18:37.883Z,7.10
2022-11-24T18:23:36.898Z,8.25
2022-11-24T18:28:31.119Z,8.25
2022-11-24T18:33:33.491Z,8.23
2022-11-24T18:38:28.261Z,8.40
2022-11-24T18:43:24.554Z,9.35
2022-11-24T18:48:18.134Z,8.20
2022-11-24T18:53:13.107Z,8.60
2022-11-24T18:58:06.727Z,7.60
2022-11-24T19:03:03.651Z,7.35
2022-11-24T19:07:57.594Z,7.43
2022-11-24T19:12:52.567Z,7.05
2022-11-24T19:17:47.538Z,8.20
2022-11-24T19:22:41.199Z,10.10
2022-11-24T19:27:38.261Z,8.05
2022-11-24T19:32:34.848Z,7.93
2022-11-24T19:37:33.002Z,6.60
2022-11-24T19:42:26.994Z,6.90
2022-11-24T19:47:21.229Z,8.07
2022-11-24T19:52:19.288Z,8.20
2022-11-24T19:57:15.526Z,7.82
2022-11-24T20:02:09.755Z,8.38
2022-11-24T20:07:12.933Z,8.63
2022-11-24T20:12:18.190Z,6.97
2022-11-24T20:17:14.613Z,7.38
2022-11-24T20:22:09.840Z,6.70
2022-11-24T20:27:04.667Z,7.20
2022-11-24T20:32:03.121Z,7.72
2022-11-24T20:37:00.801Z,6.65
2022-11-24T20:41:56.821Z,6.70
2022-11-24T20:46:51.481Z,8.80
2022-11-24T20:51:55.365Z,8.40
2022-11-24T20:56:50.211Z,6.53
2022-11-24T21:01:50.455Z,6.38
2022-11-24T21:06:45.711Z,6.60
2022-11-24T21:11:41.353Z,6.28
2022-11-24T21:16:37.861Z,6.93
2022-11-24T21:21:35.622Z,6.00
2022-11-24T21:26:32.084Z,6.30
2022-11-24T21:31:27.853Z,6.28
2022-11-24T21:36:25.323Z,6.68
2022-11-24T21:41:26.817Z,5.75
2022-11-24T21:46:20.566Z,5.63
2022-11-24T21:51:22.657Z,5.60
2022-11-24T21:56:20.625Z,5.72
2022-11-24T22:01:14.665Z,6.15
2022-11-24T22:06:09.073Z,5.55
2022-11-24T22:11:06.211Z,6.05
2022-11-24T22:16:04.579Z,6.40
2022-11-24T22:21:00.880Z,5.82
2022-11-24T22:25:54.180Z,5.82
2022-11-24T22:30:48.906Z,5.80
2022-11-24T22:35:42.300Z,5.50
2022-11-24T22:40:35.680Z,5.57
2022-11-24T22:45:36.983Z,5.45
2022-11-24T22:50:32.081Z,5.65
2022-11-24T22:55:25.869Z,5.88
2022-11-24T23:00:19.996Z,5.57
2022-11-24T23:05:18.032Z,5.40
2022-11-24T23:15:09.597Z,5.60
2022-11-24T23:20:05.647Z,6.15
2022-11-24T23:24:59.080Z,6.05
2022-11-24T23:29:53.889Z,6.13
2022-11-24T23:34:47.327Z,10.82
2022-11-24T23:39:40.805Z,6.65
2022-11-24T23:44:34.397Z,6.47
2022-11-24T23:49:31.290Z,6.53
2022-11-24T23:54:24.592Z,5.65
2022-11-24T23:59:19.136Z,6.00
